createdAt,value
2022-11-24T00:01:15.707Z,96836.19
2022-11-24T00:03:24.209Z,96838.25
2022-11-24T00:05:32.932Z,96835.19
2022-11-24T00:07:43.841Z,96838.41
2022-11-24T00:09:52.017Z,96838.50
2022-11-24T00:12:01.479Z,96841.63
2022-11-24T00:14:09.983Z,96833.44
2022-11-24T00:16:19.862Z,96837.78
2022-11-24T00:18:28.281Z,96844.22
2022-11-24T00:20:36.332Z,96841.75
2022-11-24T00:22:47.056Z,96844.97
2022-11-24T00:24:55.322Z,96853.06
2022-11-24T00:27:03.617Z,96853.28
2022-11-24T00:29:14.038Z,96857.72
2022-11-24T00:31:23.384Z,96860.69
2022-11-24T00:33:32.782Z,96869.38
2022-11-24T00:35:40.916Z,96874.56
2022-11-24T00:37:51.584Z,96879.09
2022-11-24T00:39:59.574Z,96886.66
2022-11-24T00:42:07.518Z,96897.19
2022-11-24T00:44:15.687Z,96896.25
2022-11-24T00:46:24.844Z,96903.34
2022-11-24T00:48:34.320Z,96900.91
2022-11-24T00:50:42.219Z,96909.41
2022-11-24T00:52:53.482Z,96917.97
2022-11-24T00:55:04.299Z,96926.00
2022-11-24T00:57:12.399Z,96929.84
2022-11-24T00:59:22.555Z,96932.31
2022-11-24T01:01:33.697Z,96934.84
2022-11-24T01:03:42.682Z,96940.41
2022-11-24T01:05:51.434Z,96945.00
2022-11-24T01:08:01.828Z,96947.56
2022-11-24T01:10:11.961Z,96941.16
2022-11-24T01:12:20.313Z,96953.56
2022-11-24T01:14:28.712Z,96953.97
2022-11-24T01:16:39.426Z,96959.06
2022-11-24T01:18:49.805Z,96954.81
2022-11-24T01:20:57.627Z,96955.53
2022-11-24T01:23:08.190Z,96957.00
2022-11-24T01:25:20.956Z,96951.13
2022-11-24T01:27:31.296Z,96943.41
2022-11-24T01:29:39.508Z,96944.06
2022-11-24T01:31:51.885Z,96946.22
2022-11-24T01:34:01.472Z,96945.13
2022-11-24T01:36:11.161Z,96945.78
2022-11-24T01:38:21.808Z,96952.22
2022-11-24T01:40:30.131Z,96957.53
2022-11-24T01:42:46.825Z,96952.53
2022-11-24T01:45:17.831Z,96951.91
2022-11-24T01:47:38.652Z,96951.72
2022-11-24T01:49:49.922Z,96949.81
2022-11-24T01:52:03.001Z,96953.19
2022-11-24T01:54:18.729Z,96952.56
2022-11-24T01:56:28.553Z,96955.13
2022-11-24T01:58:40.443Z,96961.19
2022-11-24T02:00:49.366Z,96965.41
2022-11-24T02:02:57.426Z,96968.25
2022-11-24T02:05:11.346Z,96976.34
2022-11-24T02:07:21.638Z,96981.47
2022-11-24T02:09:39.220Z,96977.78
2022-11-24T02:11:51.427Z,96992.41
2022-11-24T02:14:01.363Z,96986.97
2022-11-24T02:16:12.051Z,96997.72
2022-11-24T02:18:20.131Z,97001.31
2022-11-24T02:20:30.354Z,97004.38
2022-11-24T02:22:49.278Z,97002.31
2022-11-24T02:25:10.295Z,97005.47
2022-11-24T02:27:22.666Z,97007.53
2022-11-24T02:29:31.474Z,97006.84
2022-11-24T02:31:39.819Z,97011.91
2022-11-24T02:33:51.990Z,97008.38
2022-11-24T02:36:00.495Z,97015.53
2022-11-24T02:38:08.714Z,97015.00
2022-11-24T02:40:18.591Z,97008.78
2022-11-24T02:42:31.473Z,97006.50
2022-11-24T02:44:44.006Z,97010.59
2022-11-24T02:46:52.106Z,97001.00
2022-11-24T02:49:00.472Z,97002.66
2022-11-24T02:51:09.398Z,96993.47
2022-11-24T02:53:17.261Z,96985.75
2022-11-24T02:55:26.701Z,96989.94
2022-11-24T02:57:39.402Z,96994.09
2022-11-24T02:59:47.491Z,96989.78
2022-11-24T03:01:55.571Z,96989.34
2022-11-24T03:04:03.645Z,96985.63
2022-11-24T03:06:11.647Z,96991.50
2022-11-24T03:08:20.330Z,96982.38
2022-11-24T03:10:28.631Z,96996.75
2022-11-24T03:12:39.637Z,96992.47
2022-11-24T03:14:49.483Z,96993.66
2022-11-24T03:16:57.578Z,96990.75
2022-11-24T03:19:06.479Z,96989.47
2022-11-24T03:21:14.410Z,96982.34
2022-11-24T03:23:22.324Z,96993.38
2022-11-24T03:25:30.453Z,96984.63
2022-11-24T03:27:41.668Z,96990.06
2022-11-24T03:29:49.671Z,96989.34
2022-11-24T03:31:58.240Z,96983.97
2022-11-24T03:34:06.392Z,96991.97
2022-11-24T03:36:14.447Z,96991.38
2022-11-24T03:38:22.348Z,96994.84
2022-11-24T03:40:30.107Z,96991.38
2022-11-24T03:42:40.754Z,96999.69
2022-11-24T03:44:48.911Z,96996.47
2022-11-24T03:46:56.765Z,97002.34
2022-11-24T03:49:04.894Z,97002.50
2022-11-24T03:51:13.583Z,97004.38
2022-11-24T03:53:21.663Z,97014.69
2022-11-24T03:55:29.462Z,97019.84
2022-11-24T03:57:37.594Z,97025.88
2022-11-24T03:59:48.607Z,97019.78
2022-11-24T04:01:57.474Z,97027.69
2022-11-24T04:04:05.492Z,97030.91
2022-11-24T04:06:13.874Z,97035.09
2022-11-24T04:08:22.388Z,97029.38
2022-11-24T04:10:30.477Z,97038.34
2022-11-24T04:12:44.253Z,97042.41
2022-11-24T04:14:54.876Z,97051.50
2022-11-24T04:17:02.803Z,97054.41
2022-11-24T04:19:10.904Z,97057.19
2022-11-24T04:21:18.902Z,97066.53
2022-11-24T04:23:28.135Z,97070.97
2022-11-24T04:25:36.206Z,97067.72
2022-11-24T04:27:44.125Z,97079.28
2022-11-24T04:29:54.948Z,97063.63
2022-11-24T04:32:03.015Z,97072.31
2022-11-24T04:34:11.007Z,97073.91
2022-11-24T04:36:19.016Z,97067.41
2022-11-24T04:39:23.287Z,97066.56
2022-11-24T04:40:55.142Z,97070.06
2022-11-24T04:43:03.199Z,97062.34
2022-11-24T04:45:14.499Z,97056.22
2022-11-24T04:47:25.634Z,97049.78
2022-11-24T04:49:34.211Z,97057.25
2022-11-24T04:51:42.802Z,97064.16
2022-11-24T04:53:51.766Z,97061.44
2022-11-24T04:56:00.696Z,97060.34
2022-11-24T04:58:11.370Z,97072.97
2022-11-24T05:00:23.067Z,97079.88
2022-11-24T05:02:31.275Z,97089.47
2022-11-24T05:04:39.385Z,97091.81
2022-11-24T05:06:47.276Z,97088.16
2022-11-24T05:08:56.184Z,97084.44
2022-11-24T05:11:05.213Z,97083.44
2022-11-24T05:13:15.279Z,97071.88
2022-11-24T05:15:26.611Z,97082.75
2022-11-24T05:17:36.225Z,97085.91
2022-11-24T05:19:44.552Z,97095.16
2022-11-24T05:21:54.725Z,97091.13
2022-11-24T05:24:03.117Z,97088.50
2022-11-24T05:26:14.488Z,97089.06
2022-11-24T05:28:22.898Z,97079.31
2022-11-24T05:30:34.386Z,97085.84
2022-11-24T05:32:43.002Z,97099.34
2022-11-24T05:34:52.104Z,97094.69
2022-11-24T05:37:03.246Z,97096.41
2022-11-24T05:39:13.327Z,97104.63
2022-11-24T05:41:21.719Z,97099.50
2022-11-24T05:43:29.915Z,97104.47
2022-11-24T05:45:40.926Z,97118.63
2022-11-24T05:47:49.779Z,97120.50
2022-11-24T05:49:57.904Z,97123.38
2022-11-24T05:52:05.990Z,97115.25
2022-11-24T05:54:14.145Z,97122.72
2022-11-24T05:56:23.308Z,97125.59
2022-11-24T05:58:31.302Z,97121.88
2022-11-24T06:00:42.180Z,97118.56
2022-11-24T06:02:50.706Z,97110.03
2022-11-24T06:04:59.472Z,97120.44
2022-11-24T06:07:11.445Z,97115.06
2022-11-24T06:09:19.765Z,97116.78
2022-11-24T06:11:27.770Z,97119.50
2022-11-24T06:13:35.914Z,97114.16
2022-11-24T06:15:50.043Z,97105.94
2022-11-24T06:18:06.434Z,97108.25
2022-11-24T06:20:17.144Z,97116.91
2022-11-24T06:22:26.820Z,97118.38
2022-11-24T06:24:38.093Z,97124.47
2022-11-24T06:26:47.009Z,97130.63
2022-11-24T06:28:56.621Z,97139.16
2022-11-24T06:31:09.058Z,97137.25
2022-11-24T06:33:17.385Z,97139.47
2022-11-24T06:35:25.476Z,97135.16
2022-11-24T06:37:34.475Z,97139.34
2022-11-24T06:39:42.841Z,97138.25
2022-11-24T06:41:56.042Z,97149.91
2022-11-24T06:44:06.009Z,97155.63
2022-11-24T06:46:17.119Z,97159.88
2022-11-24T06:48:25.167Z,97167.44
2022-11-24T06:50:33.868Z,97171.03
2022-11-24T06:52:44.824Z,97165.59
2022-11-24T06:54:53.888Z,97172.22
2022-11-24T06:57:02.509Z,97177.69
2022-11-24T06:59:11.543Z,97175.97
2022-11-24T07:01:24.845Z,97178.28
2022-11-24T07:03:33.017Z,97186.78
2022-11-24T07:05:41.970Z,97191.31
2022-11-24T07:07:50.975Z,97201.38
2022-11-24T07:09:59.612Z,97202.72
2022-11-24T07:12:08.453Z,97201.19
2022-11-24T07:14:19.561Z,97211.69
2022-11-24T07:16:31.314Z,97213.28
2022-11-24T07:18:39.319Z,97222.81
2022-11-24T07:20:47.702Z,97228.94
2022-11-24T07:22:59.006Z,97232.00
2022-11-24T07:25:09.918Z,97242.50
2022-11-24T07:27:17.841Z,97241.91
2022-11-24T07:29:25.710Z,97248.22
2022-11-24T07:31:36.463Z,97245.81
2022-11-24T07:33:45.145Z,97255.88
2022-11-24T07:35:53.169Z,97254.81
2022-11-24T07:38:02.011Z,97256.91
2022-11-24T07:40:11.176Z,97268.41
2022-11-24T07:42:20.807Z,97266.59
2022-11-24T07:44:29.036Z,97279.53
2022-11-24T07:46:39.985Z,97269.06
2022-11-24T07:48:49.391Z,97278.13
2022-11-24T07:50:57.759Z,97276.56
2022-11-24T07:53:06.435Z,97273.09
2022-11-24T07:55:14.575Z,97274.47
2022-11-24T07:57:25.768Z,97280.16
2022-11-24T07:59:34.690Z,97279.06
2022-11-24T08:01:45.272Z,97280.69
2022-11-24T08:03:53.820Z,97288.88
2022-11-24T08:08:33.435Z,97278.06
2022-11-24T08:10:41.301Z,97285.19
2022-11-24T08:12:49.214Z,97281.69
2022-11-24T08:14:59.624Z,97281.53
2022-11-24T08:17:10.756Z,97272.75
2022-11-24T08:19:19.054Z,97266.69
2022-11-24T08:21:28.064Z,97266.31
2022-11-24T08:23:38.083Z,97269.94
2022-11-24T08:25:46.210Z,97260.06
2022-11-24T08:27:54.072Z,97262.44
2022-11-24T08:30:02.079Z,97268.06
2022-11-24T08:32:17.392Z,97276.56
2022-11-24T08:34:31.778Z,97279.38
2022-11-24T08:36:40.190Z,97282.59
2022-11-24T08:38:49.887Z,97284.06
2022-11-24T08:40:58.834Z,97280.97
2022-11-24T08:43:06.820Z,97283.56
2022-11-24T08:45:20.804Z,97291.63
2022-11-24T08:47:33.475Z,97301.19
2022-11-24T08:49:41.493Z,97301.06
2022-11-24T08:51:51.524Z,97307.72
2022-11-24T08:54:01.165Z,97304.56
2022-11-24T08:56:12.024Z,97306.47
2022-11-24T08:58:20.105Z,97306.63
2022-11-24T09:00:28.440Z,97297.28
2022-11-24T09:02:39.464Z,97310.34
2022-11-24T09:04:47.571Z,97307.91
2022-11-24T09:06:55.408Z,97312.56
2022-11-24T09:09:03.612Z,97313.25
2022-11-24T09:11:13.928Z,97315.47
2022-11-24T09:13:22.363Z,97324.66
2022-11-24T09:15:30.420Z,97322.03
2022-11-24T09:17:41.280Z,97311.25
2022-11-24T09:19:51.365Z,97312.63
2022-11-24T09:21:59.534Z,97323.59
2022-11-24T09:24:10.637Z,97320.41
2022-11-24T09:26:20.683Z,97322.09
2022-11-24T09:28:28.826Z,97328.38
2022-11-24T09:30:36.926Z,97341.97
2022-11-24T09:32:47.740Z,97345.91
2022-11-24T09:34:56.175Z,97354.13
2022-11-24T09:37:04.513Z,97358.56
2022-11-24T09:39:13.240Z,97360.84
2022-11-24T09:41:42.309Z,97366.22
2022-11-24T09:43:59.358Z,97374.09
2022-11-24T09:46:13.292Z,97371.44
2022-11-24T09:48:30.589Z,97380.03
2022-11-24T09:50:40.129Z,97375.72
2022-11-24T09:52:52.915Z,97372.03
2022-11-24T09:55:06.478Z,97381.69
2022-11-24T09:57:18.454Z,97383.00
2022-11-24T09:59:28.534Z,97388.91
2022-11-24T10:01:39.808Z,97390.25
2022-11-24T10:03:53.095Z,97396.50
2022-11-24T10:06:02.933Z,97403.16
2022-11-24T10:08:26.058Z,97401.22
2022-11-24T10:10:41.948Z,97400.81
2022-11-24T10:13:01.957Z,97415.84
2022-11-24T10:15:28.192Z,97415.66
2022-11-24T10:17:50.540Z,97401.94
2022-11-24T10:20:09.398Z,97403.03
2022-11-24T10:22:39.271Z,97402.28
2022-11-24T10:25:07.335Z,97413.19
2022-11-24T10:27:20.709Z,97407.88
2022-11-24T10:29:36.402Z,97415.91
2022-11-24T10:31:46.745Z,97423.19
2022-11-24T10:33:56.716Z,97424.31
2022-11-24T10:36:13.868Z,97430.13
2022-11-24T10:38:34.650Z,97426.41
2022-11-24T10:41:02.469Z,97430.50
2022-11-24T10:43:14.596Z,97430.41
2022-11-24T10:45:26.376Z,97438.88
2022-11-24T10:47:34.911Z,97444.03
2022-11-24T10:49:44.266Z,97440.91
2022-11-24T10:52:07.188Z,97437.59
2022-11-24T10:54:19.793Z,97436.72
2022-11-24T10:56:28.831Z,97440.66
2022-11-24T10:58:38.991Z,97436.81
2022-11-24T11:00:46.885Z,97437.25
2022-11-24T11:03:14.611Z,97437.03
2022-11-24T11:05:42.493Z,97428.25
2022-11-24T11:07:54.403Z,97428.09
2022-11-24T11:10:23.574Z,97435.09
2022-11-24T11:12:43.960Z,97431.16
2022-11-24T11:14:53.463Z,97430.09
2022-11-24T11:17:01.978Z,97433.75
2022-11-24T11:19:49.068Z,97434.78
2022-11-24T11:22:04.391Z,97426.69
2022-11-24T11:24:21.880Z,97428.41
2022-11-24T11:26:41.800Z,97423.59
2022-11-24T11:31:34.682Z,97428.25
2022-11-24T11:36:13.959Z,97428.19
2022-11-24T11:38:22.723Z,97430.41
2022-11-24T11:40:34.970Z,97426.97
2022-11-24T11:43:02.279Z,97425.16
2022-11-24T11:45:18.037Z,97421.69
2022-11-24T11:47:30.703Z,97432.50
2022-11-24T11:49:41.683Z,97422.66
2022-11-24T11:52:11.751Z,97432.09
2022-11-24T11:54:30.198Z,97432.53
2022-11-24T11:56:45.309Z,97431.41
2022-11-24T11:59:24.320Z,97433.81
2022-11-24T12:01:49.947Z,97435.09
2022-11-24T12:04:06.327Z,97440.06
2022-11-24T12:06:26.539Z,97441.66
2022-11-24T12:09:17.854Z,97442.59
2022-11-24T12:11:20.279Z,97452.34
2022-11-24T12:13:55.186Z,97450.06
2022-11-24T12:16:10.970Z,97451.03
2022-11-24T12:18:56.635Z,97450.41
2022-11-24T12:21:09.947Z,97456.34
2022-11-24T12:23:29.833Z,97453.38
2022-11-24T12:25:43.947Z,97452.13
2022-11-24T12:28:05.442Z,97460.34
2022-11-24T12:30:21.534Z,97463.50
2022-11-24T12:32:47.287Z,97456.16
2022-11-24T12:35:02.303Z,97453.97
2022-11-24T12:37:30.365Z,97460.56
2022-11-24T12:39:47.199Z,97468.88
2022-11-24T12:42:09.055Z,97471.25
2022-11-24T12:44:50.425Z,97462.31
2022-11-24T12:47:12.982Z,97467.41
2022-11-24T12:49:31.712Z,97454.78
2022-11-24T12:51:43.870Z,97466.38
2022-11-24T12:53:54.975Z,97468.47
2022-11-24T12:56:10.446Z,97471.66
2022-11-24T12:58:27.763Z,97468.59
2022-11-24T13:00:43.962Z,97467.84
2022-11-24T13:03:21.627Z,97461.34
2022-11-24T13:05:41.114Z,97473.16
2022-11-24T13:07:51.239Z,97477.22
2022-11-24T13:10:54.046Z,97474.00
2022-11-24T13:13:01.985Z,97464.53
2022-11-24T13:15:43.829Z,97466.97
2022-11-24T13:18:02.872Z,97473.16
2022-11-24T13:20:28.110Z,97469.66
2022-11-24T13:22:36.291Z,97457.22
2022-11-24T13:24:45.725Z,97452.97
2022-11-24T13:26:54.957Z,97458.47
2022-11-24T13:29:18.268Z,97458.44
2022-11-24T13:31:32.801Z,97462.28
2022-11-24T13:33:44.645Z,97466.28
2022-11-24T13:36:34.205Z,97470.06
2022-11-24T13:38:55.514Z,97479.38
2022-11-24T13:41:27.114Z,97477.66
2022-11-24T13:43:31.746Z,97479.88
2022-11-24T13:45:55.242Z,97486.06
2022-11-24T13:48:03.019Z,97484.75
2022-11-24T13:50:17.013Z,97482.72
2022-11-24T13:53:01.984Z,97488.00
2022-11-24T13:55:36.415Z,97488.91
2022-11-24T13:57:47.564Z,97491.03
2022-11-24T14:00:03.740Z,97494.97
2022-11-24T14:02:26.731Z,97493.59
2022-11-24T14:04:39.566Z,97483.31
2022-11-24T14:06:49.207Z,97488.06
2022-11-24T14:08:58.316Z,97482.16
2022-11-24T14:11:16.424Z,97480.25
2022-11-24T14:13:32.570Z,97476.50
2022-11-24T14:15:40.477Z,97477.59
2022-11-24T14:17:48.340Z,97478.44
2022-11-24T14:19:57.632Z,97484.47
2022-11-24T14:22:06.632Z,97487.56
2022-11-24T14:24:26.085Z,97482.59
2022-11-24T14:26:38.979Z,97486.31
2022-11-24T14:28:49.317Z,97481.50
2022-11-24T14:31:10.952Z,97487.66
2022-11-24T14:33:19.622Z,97489.66
2022-11-24T14:35:29.525Z,97480.38
2022-11-24T14:37:37.682Z,97481.19
2022-11-24T14:39:46.028Z,97484.75
2022-11-24T14:42:03.629Z,97483.28
2022-11-24T14:44:19.541Z,97483.59
2022-11-24T14:46:27.908Z,97488.31
2022-11-24T14:48:39.429Z,97486.91
2022-11-24T14:50:48.815Z,97489.84
2022-11-24T14:52:58.641Z,97489.59
2022-11-24T14:55:22.424Z,97497.34
2022-11-24T14:57:38.322Z,97500.00
2022-11-24T14:59:46.224Z,97505.56
2022-11-24T15:01:54.539Z,97505.34
2022-11-24T15:04:54.439Z,97501.03
2022-11-24T15:06:51.121Z,97508.03
2022-11-24T15:08:59.102Z,97510.59
2022-11-24T15:11:09.287Z,97511.63
2022-11-24T15:13:24.667Z,97510.47
2022-11-24T15:15:36.823Z,97515.00
2022-11-24T15:17:50.805Z,97519.56
2022-11-24T15:20:03.786Z,97521.00
2022-11-24T15:22:44.043Z,97519.69
2022-11-24T15:24:54.915Z,97518.75
2022-11-24T15:27:03.664Z,97524.91
2022-11-24T15:29:15.337Z,97521.50
2022-11-24T15:31:23.269Z,97522.19
2022-11-24T15:33:32.956Z,97524.59
2022-11-24T15:35:40.686Z,97519.69
2022-11-24T15:37:48.645Z,97521.84
2022-11-24T15:39:56.712Z,97524.31
2022-11-24T15:42:04.610Z,97526.47
2022-11-24T15:44:15.351Z,97529.78
2022-11-24T15:46:24.310Z,97530.84
2022-11-24T15:48:32.694Z,97539.03
2022-11-24T15:50:42.410Z,97539.69
2022-11-24T15:52:51.443Z,97538.34
2022-11-24T15:54:59.945Z,97547.63
2022-11-24T15:57:08.016Z,97550.84
2022-11-24T15:59:21.406Z,97553.81
2022-11-24T16:01:33.755Z,97556.75
2022-11-24T16:03:49.317Z,97551.81
2022-11-24T16:05:58.822Z,97554.53
2022-11-24T16:08:15.209Z,97544.66
2022-11-24T16:10:28.971Z,97542.84
2022-11-24T16:12:37.073Z,97545.91
2022-11-24T16:14:47.505Z,97550.28
2022-11-24T16:16:55.604Z,97544.44
2022-11-24T16:19:03.441Z,97539.75
2022-11-24T16:21:13.246Z,97544.13
2022-11-24T16:23:21.559Z,97550.25
2022-11-24T16:25:29.366Z,97550.25
2022-11-24T16:27:38.106Z,97553.19
2022-11-24T16:29:48.959Z,97544.66
2022-11-24T16:31:57.793Z,97555.31
2022-11-24T16:34:05.865Z,97548.00
2022-11-24T16:36:13.763Z,97555.84
2022-11-24T16:38:22.244Z,97555.50
2022-11-24T16:40:30.126Z,97551.69
2022-11-24T16:42:39.584Z,97555.47
2022-11-24T16:44:52.017Z,97553.06
2022-11-24T16:46:59.988Z,97552.63
2022-11-24T16:49:07.930Z,97553.91
2022-11-24T16:51:17.048Z,97552.34
2022-11-24T16:53:24.985Z,97549.09
2022-11-24T16:55:34.509Z,97556.91
2022-11-24T16:57:43.575Z,97552.28
2022-11-24T16:59:54.255Z,97554.09
2022-11-24T17:02:02.362Z,97562.59
2022-11-24T17:04:12.836Z,97559.56
2022-11-24T17:06:21.517Z,97555.38
2022-11-24T17:08:29.792Z,97554.28
2022-11-24T17:10:40.921Z,97552.66
2022-11-24T17:12:50.332Z,97546.50
2022-11-24T17:15:31.263Z,97544.50
2022-11-24T17:17:29.089Z,97549.91
2022-11-24T17:19:37.621Z,97541.00
2022-11-24T17:21:45.444Z,97555.28
2022-11-24T17:23:56.989Z,97547.38
2022-11-24T17:26:05.489Z,97552.97
2022-11-24T17:28:14.633Z,97559.50
2022-11-24T17:30:26.166Z,97559.41
2022-11-24T17:32:35.443Z,97560.31
2022-11-24T17:34:43.372Z,97552.16
2022-11-24T17:36:51.241Z,97553.22
2022-11-24T17:38:59.663Z,97550.56
2022-11-24T17:41:07.994Z,97548.75
2022-11-24T17:43:17.178Z,97548.16
2022-11-24T17:45:30.567Z,97553.44
2022-11-24T17:47:39.049Z,97543.28
2022-11-24T17:49:47.179Z,97542.94
2022-11-24T17:51:58.610Z,97550.34
2022-11-24T17:54:31.255Z,97550.78
2022-11-24T17:56:34.939Z,97552.25
2022-11-24T17:58:43.561Z,97555.75
2022-11-24T18:00:55.672Z,97562.72
2022-11-24T18:03:03.897Z,97556.13
2022-11-24T18:05:12.360Z,97556.16
2022-11-24T18:07:20.348Z,97552.84
2022-11-24T18:09:30.867Z,97557.28
2022-11-24T18:11:39.118Z,97547.72
2022-11-24T18:14:02.689Z,97560.25
2022-11-24T18:16:15.424Z,97559.13
2022-11-24T18:18:23.406Z,97557.03
2022-11-24T18:20:32.839Z,97565.31
2022-11-24T18:23:04.526Z,97550.78
2022-11-24T18:25:12.558Z,97563.13
2022-11-24T18:27:20.489Z,97558.13
2022-11-24T18:29:28.688Z,97554.06
2022-11-24T18:31:39.619Z,97554.22
2022-11-24T18:33:48.118Z,97549.19
2022-11-24T18:35:59.622Z,97546.44
2022-11-24T18:38:08.591Z,97541.38
2022-11-24T18:40:16.761Z,97539.03
2022-11-24T18:42:25.874Z,97539.50
2022-11-24T18:44:34.130Z,97535.38
2022-11-24T18:46:45.623Z,97532.22
2022-11-24T18:48:53.760Z,97533.25
2022-11-24T18:51:02.085Z,97530.06
2022-11-24T18:53:10.134Z,97526.50
2022-11-24T18:55:18.333Z,97529.00
2022-11-24T18:57:26.291Z,97523.91
2022-11-24T18:59:34.272Z,97534.56
2022-11-24T19:01:46.318Z,97528.31
2022-11-24T19:03:56.506Z,97528.16
2022-11-24T19:06:05.978Z,97527.97
2022-11-24T19:08:14.062Z,97535.44
2022-11-24T19:10:22.085Z,97525.81
2022-11-24T19:12:30.170Z,97537.34
2022-11-24T19:14:38.048Z,97542.91
2022-11-24T19:16:50.190Z,97534.25
2022-11-24T19:19:00.432Z,97536.97
2022-11-24T19:21:08.934Z,97531.50
2022-11-24T19:23:18.704Z,97529.13
2022-11-24T19:25:26.588Z,97527.03
2022-11-24T19:27:34.579Z,97532.56
2022-11-24T19:29:43.318Z,97531.84
2022-11-24T19:31:56.647Z,97537.28
2022-11-24T19:34:06.057Z,97530.25
2022-11-24T19:36:16.849Z,97529.56
2022-11-24T19:38:29.684Z,97529.78
2022-11-24T19:40:38.178Z,97529.28
2022-11-24T19:42:46.285Z,97528.03
2022-11-24T19:44:56.643Z,97525.00
2022-11-24T19:47:07.496Z,97524.34
2022-11-24T19:49:15.768Z,97516.78
2022-11-24T19:51:25.712Z,97520.34
2022-11-24T19:53:34.095Z,97498.47
2022-11-24T19:55:42.264Z,97511.25
2022-11-24T19:57:50.286Z,97514.72
2022-11-24T19:59:58.173Z,97510.22
2022-11-24T20:02:08.859Z,97506.84
2022-11-24T20:04:17.446Z,97502.44
2022-11-24T20:06:25.410Z,97495.34
2022-11-24T20:08:34.322Z,97494.50
2022-11-24T20:10:42.637Z,97499.94
2022-11-24T20:12:50.537Z,97497.06
2022-11-24T20:14:58.953Z,97494.50
2022-11-24T20:17:09.765Z,97495.38
2022-11-24T20:19:19.343Z,97497.97
2022-11-24T20:21:31.383Z,97506.72
2022-11-24T20:23:39.907Z,97505.44
2022-11-24T20:25:47.899Z,97508.81
2022-11-24T20:27:56.094Z,97502.63
2022-11-24T20:30:04.099Z,97511.63
2022-11-24T20:32:19.552Z,97504.94
2022-11-24T20:34:28.567Z,97512.25
2022-11-24T20:36:38.555Z,97514.53
2022-11-24T20:38:47.275Z,97507.97
2022-11-24T20:40:55.325Z,97515.09
2022-11-24T20:43:03.326Z,97511.53
2022-11-24T20:45:11.668Z,97502.59
2022-11-24T20:47:22.464Z,97502.59
2022-11-24T20:49:31.447Z,97497.59
2022-11-24T20:51:43.998Z,97491.06
2022-11-24T20:53:52.796Z,97491.00
2022-11-24T20:56:06.378Z,97500.81
2022-11-24T20:58:14.707Z,97497.72
2022-11-24T21:00:23.140Z,97505.53
2022-11-24T21:02:33.968Z,97499.34
2022-11-24T21:04:42.135Z,97505.13
2022-11-24T21:07:01.116Z,97501.00
2022-11-24T21:09:12.630Z,97495.72
2022-11-24T21:11:24.850Z,97501.44
2022-11-24T21:13:38.274Z,97489.53
2022-11-24T21:15:46.401Z,97487.63
2022-11-24T21:18:03.467Z,97482.44
2022-11-24T21:20:13.051Z,97484.03
2022-11-24T21:22:20.898Z,97479.84
2022-11-24T21:24:31.151Z,97481.91
2022-11-24T21:26:40.308Z,97468.88
2022-11-24T21:28:50.148Z,97476.78
2022-11-24T21:30:58.470Z,97470.34
2022-11-24T21:33:09.300Z,97475.63
2022-11-24T21:35:17.349Z,97463.84
2022-11-24T21:37:25.387Z,97464.06
2022-11-24T21:39:33.508Z,97465.34
2022-11-24T21:41:41.445Z,97468.75
2022-11-24T21:43:50.269Z,97469.00
2022-11-24T21:45:58.504Z,97470.19
2022-11-24T21:48:09.826Z,97478.13
2022-11-24T21:50:26.227Z,97469.44
2022-11-24T21:52:34.127Z,97464.84
2022-11-24T21:54:42.068Z,97464.97
2022-11-24T21:56:55.527Z,97459.06
2022-11-24T21:59:03.407Z,97465.16
2022-11-24T22:01:12.956Z,97463.88
2022-11-24T22:03:24.579Z,97472.69
2022-11-24T22:05:32.419Z,97474.25
2022-11-24T22:07:40.445Z,97469.38
2022-11-24T22:09:49.849Z,97466.91
2022-11-24T22:11:57.702Z,97471.41
2022-11-24T22:14:05.679Z,97468.78
2022-11-24T22:16:15.697Z,97469.97
2022-11-24T22:18:26.327Z,97461.59
2022-11-24T22:20:34.019Z,97456.19
2022-11-24T22:22:41.831Z,97454.25
2022-11-24T22:24:49.737Z,97453.59
2022-11-24T22:26:57.599Z,97458.38
2022-11-24T22:29:06.114Z,97460.16
2022-11-24T22:31:15.675Z,97457.00
2022-11-24T22:33:26.281Z,97462.25
2022-11-24T22:35:34.205Z,97461.28
2022-11-24T22:37:42.018Z,97458.63
2022-11-24T22:39:50.021Z,97461.34
2022-11-24T22:41:57.947Z,97453.19
2022-11-24T22:44:06.099Z,97458.47
2022-11-24T22:46:16.146Z,97459.19
2022-11-24T22:48:26.705Z,97463.13
2022-11-24T22:50:34.591Z,97456.38
2022-11-24T22:52:42.528Z,97461.44
2022-11-24T22:54:50.426Z,97463.28
2022-11-24T22:56:58.443Z,97466.47
2022-11-24T22:59:07.360Z,97467.78
2022-11-24T23:01:17.480Z,97472.03
2022-11-24T23:03:28.165Z,97474.06
2022-11-24T23:05:36.159Z,97473.38
2022-11-24T23:07:44.070Z,97477.13
2022-11-24T23:09:51.977Z,97481.38
2022-11-24T23:11:59.868Z,97480.78
2022-11-24T23:14:08.076Z,97476.63
2022-11-24T23:16:17.773Z,97470.94
2022-11-24T23:18:28.247Z,97478.38
2022-11-24T23:20:37.860Z,97474.09
2022-11-24T23:22:45.817Z,97474.25
2022-11-24T23:24:53.576Z,97482.47
2022-11-24T23:27:01.476Z,97475.88
2022-11-24T23:29:10.551Z,97476.97
2022-11-24T23:31:20.430Z,97470.19
2022-11-24T23:33:31.048Z,97461.72
2022-11-24T23:35:38.949Z,97471.88
2022-11-24T23:38:06.668Z,97466.09
2022-11-24T23:40:15.515Z,97448.97
2022-11-24T23:42:23.368Z,97455.09
2022-11-24T23:44:31.169Z,97452.78
2022-11-24T23:46:39.207Z,97455.53
2022-11-24T23:48:50.141Z,97450.47
2022-11-24T23:50:58.721Z,97446.81
2022-11-24T23:53:06.608Z,97451.34
2022-11-24T23:55:14.458Z,97445.41
2022-11-24T23:57:22.347Z,97453.44
2022-11-24T23:59:30.299Z,97451.25
